Heroic Leader — C6ZD2 — position and weather

sailwx.info

Track history (hours):
 
Tides and Currents Weather Stations Pressure Air Temp Water Temp Dewpoint Dewpoint Depression Visibility Wind Speed Wind Dir Waves Ship Positions

Heroic Leader

Last reported at 2016-Sep-21 16:33 UTC. Time now 2016-Sep-28 03:27 UTC.
Position N 31°24' E 032°20'.

Length 200 m; draft 8.4 m.

Type: Cargo ship. MMSI: 311052700.

Date/timePositionNaut miles runAvg speedWind from/ knotsBaromVisibWave heightAir tempDewpointWater temp
2016-Sep-21 16:33N 31°24' E 032°20'0 0.0
2016-Sep-21 09:33N 31°24' E 032°20'0 0.1
2016-Sep-21 08:09N 31°24' E 032°20'0 0.0
2016-Sep-21 05:30N 31°24' E 032°20'14512.1
2016-Sep-20 17:33N 33°06' E 034°21'4916.2
2016-Sep-20 14:33N 33°42' E 034°59'1616.0
2016-Sep-20 13:33N 33°54' E 035°12'17 1.5
2016-Sep-20 02:33N 33°57' E 035°32'23 7.8
2016-Sep-19 23:33N 33°56' E 035°04'5513.7
2016-Sep-19 19:33N 34°07' E 033°59'5117.2
2016-Sep-19 16:33N 34°16' E 032°58'3417.0
2016-Sep-19 14:33N 34°23' E 032°18'1716.8
2016-Sep-19 13:33N 34°26' E 031°57'1817.0
2016-Sep-19 12:28N 34°29' E 031°35'1617.0
2016-Sep-19 11:33N 34°32' E 031°17'33916.0
2016-Sep-18 14:24N 35°44' E 024°32'72016.0
2016-Sep-16 17:33N 44°26' E 013°43'3417.2
2016-Sep-16 15:33N 44°55' E 013°18'4113.7
2016-Sep-16 12:33N 45°36' E 013°27'12 4.1
2016-Sep-16 09:33N 45°34' E 013°44'0 0.0
2016-Sep-16 07:33N 45°34' E 013°44'1 0.1
2016-Sep-16 03:33N 45°33' E 013°44'4 4.4
2016-Sep-16 02:33N 45°35' E 013°37'17 8.3
2016-Sep-16 00:33N 45°25' E 013°18'1 0.5
2016-Sep-15 22:33N 45°24' E 013°17'6 6.3
2016-Sep-15 21:33N 45°19' E 013°11'1615.8
2016-Sep-15 20:33N 45°04' E 013°17'3115.8
2016-Sep-15 18:33N 44°37' E 013°39'47010.7
2016-Sep-13 22:33N 36°47' E 013°52'3216.0
2016-Sep-13 20:33N 37°03' E 013°17'35815.6
2016-Sep-12 21:33N 42°26' E 009°54'3216.2
2016-Sep-12 19:33N 42°58' E 009°58'3316.3
2016-Sep-12 17:33N 43°29' E 010°12'6 2.1
2016-Sep-12 14:33N 43°33' E 010°18'0 0.0
2016-Sep-12 13:33N 43°33' E 010°18'0 0.0
2016-Sep-12 12:33N 43°33' E 010°18'0 0.0
2016-Sep-12 11:33N 43°33' E 010°18'0 0.0
2016-Sep-12 10:33N 43°33' E 010°18'1 0.2
2016-Sep-12 07:34N 43°33' E 010°17'7 7.3
2016-Sep-12 06:33N 43°27' E 010°11'9 3.1
2016-Sep-12 03:33N 43°22' E 010°01'2010.1
2016-Sep-12 01:33N 43°15' E 009°35'2110.4
2016-Sep-11 23:33N 43°07' E 009°09'1616.3
2016-Sep-11 22:33N 42°55' E 008°54'1716.4
2016-Sep-11 21:33N 42°42' E 008°39'1916.4
2016-Sep-11 20:24N 42°28' E 008°22'1415.9
2016-Sep-11 19:32N 42°18' E 008°10'1615.7
2016-Sep-11 18:33N 42°06' E 007°56'1615.6
2016-Sep-11 17:33N 41°54' E 007°43'1616.0
2016-Sep-11 16:33N 41°43' E 007°28'  
Track history (hours):
 
Tides and Currents Weather Stations Pressure Air Temp Water Temp Dewpoint Dewpoint Depression Visibility Wind Speed Wind Dir Waves Ship Positions

Heroic Leader

Last reported at 2016-Sep-21 16:33 UTC. Time now 2016-Sep-28 03:27 UTC.
Position N 31°24' E 032°20'.

Length 200 m; draft 8.4 m.

Type: Cargo ship. MMSI: 311052700.

Date/timePositionNaut miles runAvg speedWind from/ knotsBaromVisibWave heightAir tempDewpointWater temp
2016-Sep-21 16:33N 31°24' E 032°20'0 0.0
2016-Sep-21 09:33N 31°24' E 032°20'0 0.1
2016-Sep-21 08:09N 31°24' E 032°20'0 0.0
2016-Sep-21 05:30N 31°24' E 032°20'14512.1
2016-Sep-20 17:33N 33°06' E 034°21'4916.2
2016-Sep-20 14:33N 33°42' E 034°59'1616.0
2016-Sep-20 13:33N 33°54' E 035°12'17 1.5
2016-Sep-20 02:33N 33°57' E 035°32'23 7.8
2016-Sep-19 23:33N 33°56' E 035°04'5513.7
2016-Sep-19 19:33N 34°07' E 033°59'5117.2
2016-Sep-19 16:33N 34°16' E 032°58'3417.0
2016-Sep-19 14:33N 34°23' E 032°18'1716.8
2016-Sep-19 13:33N 34°26' E 031°57'1817.0
2016-Sep-19 12:28N 34°29' E 031°35'1617.0
2016-Sep-19 11:33N 34°32' E 031°17'33916.0
2016-Sep-18 14:24N 35°44' E 024°32'72016.0
2016-Sep-16 17:33N 44°26' E 013°43'3417.2
2016-Sep-16 15:33N 44°55' E 013°18'4113.7
2016-Sep-16 12:33N 45°36' E 013°27'12 4.1
2016-Sep-16 09:33N 45°34' E 013°44'0 0.0
2016-Sep-16 07:33N 45°34' E 013°44'1 0.1
2016-Sep-16 03:33N 45°33' E 013°44'4 4.4
2016-Sep-16 02:33N 45°35' E 013°37'17 8.3
2016-Sep-16 00:33N 45°25' E 013°18'1 0.5
2016-Sep-15 22:33N 45°24' E 013°17'6 6.3
2016-Sep-15 21:33N 45°19' E 013°11'1615.8
2016-Sep-15 20:33N 45°04' E 013°17'3115.8
2016-Sep-15 18:33N 44°37' E 013°39'47010.7
2016-Sep-13 22:33N 36°47' E 013°52'3216.0
2016-Sep-13 20:33N 37°03' E 013°17'35815.6
2016-Sep-12 21:33N 42°26' E 009°54'3216.2
2016-Sep-12 19:33N 42°58' E 009°58'3316.3
2016-Sep-12 17:33N 43°29' E 010°12'6 2.1
2016-Sep-12 14:33N 43°33' E 010°18'0 0.0
2016-Sep-12 13:33N 43°33' E 010°18'0 0.0
2016-Sep-12 12:33N 43°33' E 010°18'0 0.0
2016-Sep-12 11:33N 43°33' E 010°18'0 0.0
2016-Sep-12 10:33N 43°33' E 010°18'1 0.2
2016-Sep-12 07:34N 43°33' E 010°17'7 7.3
2016-Sep-12 06:33N 43°27' E 010°11'9 3.1
2016-Sep-12 03:33N 43°22' E 010°01'2010.1
2016-Sep-12 01:33N 43°15' E 009°35'2110.4
2016-Sep-11 23:33N 43°07' E 009°09'1616.3
2016-Sep-11 22:33N 42°55' E 008°54'1716.4
2016-Sep-11 21:33N 42°42' E 008°39'1916.4
2016-Sep-11 20:24N 42°28' E 008°22'1415.9
2016-Sep-11 19:32N 42°18' E 008°10'1615.7
2016-Sep-11 18:33N 42°06' E 007°56'1615.6
2016-Sep-11 17:33N 41°54' E 007°43'1616.0
2016-Sep-11 16:33N 41°43' E 007°28'  

Dump ship's entire track history